createdAt,value
2023-05-05T00:00:54.679Z,0.00
2023-05-05T00:01:54.718Z,0.00
2023-05-05T00:02:54.715Z,0.00
2023-05-05T00:03:54.687Z,0.00
2023-05-05T00:04:54.714Z,0.00
2023-05-05T00:05:54.674Z,0.00
2023-05-05T00:06:54.662Z,0.00
2023-05-05T00:07:54.669Z,8.69
2023-05-05T00:08:54.662Z,23.63
2023-05-05T00:09:54.719Z,25.00
2023-05-05T00:10:54.693Z,26.07
2023-05-05T00:11:54.652Z,24.92
2023-05-05T00:12:54.672Z,25.00
2023-05-05T00:13:54.680Z,25.00
2023-05-05T00:14:54.687Z,25.12
2023-05-05T00:15:54.728Z,27.48
2023-05-05T00:16:54.821Z,25.37
2023-05-05T00:17:54.862Z,25.66
2023-05-05T00:18:54.810Z,25.94
2023-05-05T00:19:54.849Z,25.00
2023-05-05T00:20:54.918Z,25.77
2023-05-05T00:21:54.971Z,25.05
2023-05-05T00:22:55.027Z,25.00
2023-05-05T00:23:55.072Z,27.10
2023-05-05T00:24:55.095Z,26.26
2023-05-05T00:25:55.135Z,25.70
2023-05-05T00:26:55.220Z,25.00
2023-05-05T00:27:55.248Z,26.15
2023-05-05T00:28:55.275Z,26.16
2023-05-05T00:29:55.300Z,25.44
2023-05-05T00:30:55.390Z,25.79
2023-05-05T00:31:55.428Z,25.96
2023-05-05T00:32:55.539Z,25.54
2023-05-05T00:33:55.571Z,27.05
2023-05-05T00:34:55.635Z,27.24
2023-05-05T00:35:55.694Z,27.86
2023-05-05T00:36:55.757Z,25.00
2023-05-05T00:37:55.828Z,25.20
2023-05-05T00:38:55.907Z,25.56
2023-05-05T00:39:55.972Z,25.00
2023-05-05T00:40:56.046Z,26.33
2023-05-05T00:41:56.133Z,27.08
2023-05-05T00:42:56.193Z,26.69
2023-05-05T00:43:56.246Z,27.14
2023-05-05T00:44:56.294Z,25.40
2023-05-05T00:45:56.365Z,26.09
2023-05-05T00:46:57.202Z,26.16
2023-05-05T00:47:56.493Z,25.22
2023-05-05T00:48:56.572Z,25.39
2023-05-05T00:49:56.574Z,27.57
2023-05-05T00:50:56.648Z,28.30
2023-05-05T00:51:56.703Z,26.58
2023-05-05T00:52:56.786Z,26.71
2023-05-05T00:53:56.903Z,26.29
2023-05-05T00:54:56.907Z,26.50
2023-05-05T00:55:57.022Z,26.68
2023-05-05T00:56:57.074Z,26.42
2023-05-05T00:57:57.129Z,27.23
2023-05-05T00:58:57.216Z,25.00
2023-05-05T00:59:57.245Z,25.33
2023-05-05T01:00:57.303Z,27.54
2023-05-05T01:01:57.495Z,26.98
2023-05-05T01:02:57.468Z,27.74
2023-05-05T01:03:57.500Z,25.64
2023-05-05T01:04:57.523Z,27.15
2023-05-05T01:05:57.587Z,25.59
2023-05-05T01:06:57.646Z,26.03
2023-05-05T01:07:57.713Z,25.54
2023-05-05T01:08:57.778Z,25.51
2023-05-05T01:10:15.627Z,26.68
2023-05-05T01:10:57.837Z,26.96
2023-05-05T01:11:57.837Z,27.50
2023-05-05T01:12:57.859Z,27.07
2023-05-05T01:13:57.832Z,27.20
2023-05-05T01:14:57.858Z,26.43
2023-05-05T01:15:57.850Z,26.27
2023-05-05T01:16:57.811Z,25.00
2023-05-05T01:17:57.861Z,26.64
2023-05-05T01:18:57.796Z,25.78
2023-05-05T01:19:57.795Z,26.82
2023-05-05T01:20:57.784Z,26.82
2023-05-05T01:21:57.781Z,27.18
2023-05-05T01:22:57.775Z,25.46
2023-05-05T01:23:57.764Z,28.07
2023-05-05T01:24:57.767Z,25.53
2023-05-05T01:25:57.759Z,28.01
2023-05-05T01:26:57.756Z,26.89
2023-05-05T01:27:57.789Z,28.19
2023-05-05T01:28:57.770Z,26.83
2023-05-05T01:29:57.763Z,28.48
2023-05-05T01:30:57.775Z,30.17
2023-05-05T01:31:57.852Z,29.81
2023-05-05T01:32:57.827Z,26.75
2023-05-05T01:33:57.736Z,26.29
2023-05-05T01:34:57.740Z,27.70
2023-05-05T01:35:57.754Z,29.11
2023-05-05T01:36:57.794Z,27.43
2023-05-05T01:37:57.857Z,26.52
2023-05-05T01:38:57.923Z,26.86
2023-05-05T01:39:57.967Z,26.46
2023-05-05T01:40:58.045Z,25.00
2023-05-05T01:41:58.113Z,28.76
2023-05-05T01:42:58.199Z,27.94
2023-05-05T01:43:58.265Z,29.13
2023-05-05T01:44:58.343Z,28.27
2023-05-05T01:45:58.445Z,26.34
2023-05-05T01:46:58.515Z,26.88
2023-05-05T01:47:58.603Z,25.92
2023-05-05T01:48:58.644Z,27.31
2023-05-05T01:49:58.692Z,26.32
2023-05-05T01:50:58.751Z,28.03
2023-05-05T01:51:58.837Z,25.70
2023-05-05T01:52:58.876Z,27.50
2023-05-05T01:53:58.932Z,26.83
2023-05-05T01:54:58.992Z,26.72
2023-05-05T01:55:59.066Z,26.21
2023-05-05T01:56:59.126Z,28.89
2023-05-05T01:57:59.177Z,27.61
2023-05-05T01:58:59.245Z,29.54
2023-05-05T01:59:59.301Z,26.81
2023-05-05T02:00:59.363Z,28.89
2023-05-05T02:01:59.391Z,27.61
2023-05-05T02:02:59.604Z,29.04
2023-05-05T02:03:59.456Z,27.95
2023-05-05T02:04:59.457Z,27.23
2023-05-05T02:05:59.490Z,27.29
2023-05-05T02:06:59.519Z,28.67
2023-05-05T02:07:59.539Z,28.35
2023-05-05T02:08:59.541Z,27.49
2023-05-05T02:09:59.551Z,27.05
2023-05-05T02:10:59.584Z,26.75
2023-05-05T02:11:59.624Z,26.62
2023-05-05T02:12:59.693Z,27.83
2023-05-05T02:13:59.698Z,28.99
2023-05-05T02:14:59.714Z,28.74
2023-05-05T02:15:59.784Z,28.49
2023-05-05T02:16:59.741Z,28.63
2023-05-05T02:17:59.780Z,28.60
2023-05-05T02:18:59.797Z,28.14
2023-05-05T02:19:59.797Z,27.16
2023-05-05T02:20:59.818Z,27.89
2023-05-05T02:21:59.829Z,29.81
2023-05-05T02:22:59.867Z,28.01
2023-05-05T02:23:59.928Z,28.53
2023-05-05T02:24:59.938Z,25.45
2023-05-05T02:25:59.971Z,28.20
2023-05-05T02:27:00.588Z,29.84
2023-05-05T02:28:00.009Z,28.62
2023-05-05T02:29:00.046Z,26.20
2023-05-05T02:29:59.996Z,27.78
2023-05-05T02:31:00.085Z,26.50
2023-05-05T02:32:00.006Z,27.87
2023-05-05T02:33:00.054Z,27.77
2023-05-05T02:33:59.988Z,29.26
2023-05-05T02:35:00.036Z,28.67
2023-05-05T02:36:00.080Z,29.19
2023-05-05T02:37:00.104Z,26.62
2023-05-05T02:38:00.189Z,28.36
2023-05-05T02:39:00.199Z,30.26
2023-05-05T02:40:00.316Z,27.76
2023-05-05T02:41:00.322Z,28.25
2023-05-05T02:42:00.376Z,27.28
2023-05-05T02:43:00.432Z,27.82
2023-05-05T02:44:00.410Z,25.87
2023-05-05T02:45:00.432Z,27.69
2023-05-05T02:46:00.447Z,27.23
2023-05-05T02:47:00.449Z,26.08
2023-05-05T02:48:00.470Z,29.46
2023-05-05T02:49:00.446Z,28.85
2023-05-05T02:50:00.463Z,27.47
2023-05-05T02:51:00.506Z,28.74
2023-05-05T02:52:00.498Z,26.29
2023-05-05T02:53:00.526Z,27.10
2023-05-05T02:54:00.507Z,26.94
2023-05-05T02:55:00.538Z,26.82
2023-05-05T02:56:00.538Z,27.39
2023-05-05T02:57:00.536Z,26.11
2023-05-05T02:58:00.592Z,28.18
2023-05-05T02:59:00.567Z,26.52
2023-05-05T03:00:00.594Z,26.43
2023-05-05T03:01:00.601Z,27.00
2023-05-05T03:02:00.667Z,29.07
2023-05-05T03:03:00.699Z,29.31
2023-05-05T03:04:00.712Z,26.37
2023-05-05T03:05:00.728Z,27.88
2023-05-05T03:06:00.732Z,28.12
2023-05-05T03:07:00.733Z,27.43
2023-05-05T03:08:00.700Z,27.62
2023-05-05T03:09:00.694Z,26.01
2023-05-05T03:10:00.702Z,27.52
2023-05-05T03:11:00.711Z,27.75
2023-05-05T03:12:00.738Z,26.35
2023-05-05T03:13:00.846Z,26.74
2023-05-05T03:14:00.761Z,26.65
2023-05-05T03:15:00.759Z,28.75
2023-05-05T03:16:00.773Z,27.28
2023-05-05T03:17:00.780Z,29.51
2023-05-05T03:18:00.853Z,27.77
2023-05-05T03:19:00.812Z,27.39
2023-05-05T03:20:03.454Z,27.04
2023-05-05T03:21:00.805Z,27.25
2023-05-05T03:22:00.806Z,27.36
2023-05-05T03:23:00.820Z,27.61
2023-05-05T03:24:00.796Z,27.43
2023-05-05T03:25:00.790Z,28.03
2023-05-05T03:26:00.786Z,26.79
2023-05-05T03:27:00.784Z,26.90
2023-05-05T03:28:00.771Z,27.55
2023-05-05T03:29:00.776Z,26.73
2023-05-05T03:30:00.776Z,28.94
2023-05-05T03:31:00.760Z,28.08
2023-05-05T03:32:00.771Z,29.73
2023-05-05T03:33:00.737Z,28.27
2023-05-05T03:34:00.721Z,29.72
2023-05-05T03:35:00.722Z,25.00
2023-05-05T03:36:00.699Z,27.76
2023-05-05T03:37:00.696Z,27.50
2023-05-05T03:38:00.687Z,26.90
2023-05-05T03:39:00.691Z,29.33
2023-05-05T03:40:00.671Z,27.22
2023-05-05T03:41:00.649Z,25.86
2023-05-05T03:42:00.629Z,25.91
2023-05-05T03:43:00.622Z,25.00
2023-05-05T03:44:00.617Z,26.54
2023-05-05T03:45:00.622Z,26.55
2023-05-05T03:46:00.669Z,28.20
2023-05-05T03:47:00.610Z,27.65
2023-05-05T03:48:00.658Z,26.32
2023-05-05T03:49:00.592Z,27.72
2023-05-05T03:50:00.588Z,26.38
2023-05-05T03:51:00.554Z,26.38
2023-05-05T03:52:00.568Z,27.43
2023-05-05T03:53:00.559Z,25.15
2023-05-05T03:54:00.543Z,28.18
2023-05-05T03:55:00.561Z,28.64
2023-05-05T03:56:00.556Z,25.99
2023-05-05T03:57:00.520Z,29.91
2023-05-05T03:58:00.549Z,29.98
2023-05-05T03:59:00.500Z,27.92
2023-05-05T04:00:00.502Z,26.08
2023-05-05T04:01:00.480Z,26.61
2023-05-05T04:02:00.549Z,26.32
2023-05-05T04:03:00.505Z,26.96
2023-05-05T04:04:00.516Z,26.19
2023-05-05T04:05:00.423Z,25.93
2023-05-05T04:06:00.420Z,25.92
2023-05-05T04:07:00.405Z,27.45
2023-05-05T04:08:00.398Z,27.97
2023-05-05T04:09:00.395Z,27.81
2023-05-05T04:10:00.400Z,27.90
2023-05-05T04:11:00.417Z,28.42
2023-05-05T04:12:00.362Z,28.52
2023-05-05T04:13:00.430Z,29.26
2023-05-05T04:14:00.354Z,28.42
2023-05-05T04:15:00.380Z,28.52
2023-05-05T04:16:00.447Z,28.99
2023-05-05T04:17:00.359Z,28.32
2023-05-05T04:18:00.353Z,28.96
2023-05-05T04:19:01.134Z,29.66
2023-05-05T04:20:00.331Z,29.89
2023-05-05T04:21:00.318Z,28.03
2023-05-05T04:22:00.301Z,28.96
2023-05-05T04:23:00.298Z,27.97
2023-05-05T04:24:00.294Z,26.19
2023-05-05T04:25:00.306Z,25.87
2023-05-05T04:26:00.276Z,28.20
2023-05-05T04:27:00.278Z,29.32
2023-05-05T04:28:00.291Z,28.76
2023-05-05T04:29:00.236Z,28.17
2023-05-05T04:30:00.248Z,27.53
2023-05-05T04:31:00.278Z,27.29
2023-05-05T04:32:00.220Z,27.88
2023-05-05T04:33:00.338Z,27.89
2023-05-05T04:34:00.229Z,27.03
2023-05-05T04:35:00.189Z,27.93
2023-05-05T04:36:00.206Z,28.21
2023-05-05T04:37:00.176Z,29.86
2023-05-05T04:38:00.171Z,26.94
2023-05-05T04:39:00.238Z,28.18
2023-05-05T04:40:00.161Z,27.00
2023-05-05T04:41:00.174Z,27.49
2023-05-05T04:42:00.168Z,27.40
2023-05-05T04:43:00.148Z,27.15
2023-05-05T04:44:00.164Z,28.26
2023-05-05T04:45:00.140Z,28.21
2023-05-05T04:46:00.166Z,27.49
2023-05-05T04:47:00.133Z,27.00
2023-05-05T04:48:00.178Z,26.56
2023-05-05T04:49:00.147Z,26.44
2023-05-05T04:50:00.145Z,27.82
2023-05-05T04:51:00.134Z,26.46
2023-05-05T04:52:00.085Z,28.93
2023-05-05T04:53:00.088Z,28.17
2023-05-05T04:54:00.083Z,26.88
2023-05-05T04:55:00.076Z,27.94
2023-05-05T04:56:00.058Z,29.44
2023-05-05T04:57:00.046Z,27.64
2023-05-05T04:58:00.043Z,26.99
2023-05-05T04:59:00.056Z,28.66
2023-05-05T05:00:00.040Z,29.29
2023-05-05T05:01:00.017Z,28.70
2023-05-05T05:02:00.076Z,25.84
2023-05-05T05:03:00.059Z,27.49
2023-05-05T05:04:00.112Z,28.15
2023-05-05T05:05:00.011Z,26.82
2023-05-05T05:06:00.015Z,26.35
2023-05-05T05:07:00.008Z,27.68
2023-05-05T05:08:00.008Z,27.19
2023-05-05T05:08:59.995Z,28.92
2023-05-05T05:09:59.996Z,27.62
2023-05-05T05:10:59.989Z,27.56
2023-05-05T05:11:59.998Z,26.05
2023-05-05T05:13:00.211Z,27.42
2023-05-05T05:13:59.998Z,25.41
2023-05-05T05:15:00.098Z,25.89
2023-05-05T05:16:00.287Z,25.04
2023-05-05T05:16:59.974Z,26.02
2023-05-05T05:18:00.269Z,26.98
2023-05-05T05:19:01.609Z,26.41
2023-05-05T05:19:59.961Z,29.01
2023-05-05T05:21:00.180Z,30.64
2023-05-05T05:21:59.938Z,28.52
2023-05-05T05:23:00.197Z,25.00
2023-05-05T05:23:59.935Z,25.00
2023-05-05T05:24:59.915Z,25.88
2023-05-05T05:25:59.903Z,26.33
2023-05-05T05:26:59.907Z,25.00
2023-05-05T05:28:09.496Z,25.19
2023-05-05T05:28:59.897Z,25.63
2023-05-05T05:29:59.896Z,26.48
2023-05-05T05:30:59.908Z,25.70
2023-05-05T05:32:00.220Z,23.56
2023-05-05T05:32:59.889Z,19.61
2023-05-05T05:33:59.847Z,25.00
2023-05-05T05:34:59.834Z,25.27
2023-05-05T05:35:59.828Z,26.57
2023-05-05T05:36:59.830Z,25.48
2023-05-05T05:37:59.845Z,25.00
2023-05-05T05:38:59.804Z,24.51
2023-05-05T05:39:59.805Z,26.74
2023-05-05T05:40:59.784Z,26.54
2023-05-05T05:42:00.164Z,26.28
2023-05-05T05:42:59.777Z,28.12
2023-05-05T05:43:59.822Z,29.78
2023-05-05T05:44:59.778Z,31.25
2023-05-05T05:45:59.762Z,35.10
2023-05-05T05:47:00.226Z,35.13
2023-05-05T05:47:59.840Z,34.32
2023-05-05T05:48:59.746Z,35.17
2023-05-05T05:49:59.746Z,35.53
2023-05-05T05:50:59.723Z,39.76
2023-05-05T05:52:00.186Z,42.53
2023-05-05T05:53:15.772Z,47.25
2023-05-05T05:53:59.744Z,47.72
2023-05-05T05:54:59.703Z,49.37
2023-05-05T05:55:59.690Z,54.54
2023-05-05T05:57:01.169Z,62.29
2023-05-05T05:58:02.894Z,80.84
2023-05-05T05:58:59.697Z,48.96
2023-05-05T06:01:15.260Z,49.12
2023-05-05T06:01:59.871Z,49.42
2023-05-05T06:02:59.830Z,56.20
2023-05-05T06:04:15.303Z,67.09
2023-05-05T06:05:06.990Z,49.51
2023-05-05T06:06:06.968Z,49.86
2023-05-05T06:06:59.561Z,50.04
2023-05-05T06:07:59.543Z,59.49
2023-05-05T06:08:59.677Z,74.80
2023-05-05T06:10:02.967Z,95.34
2023-05-05T06:11:00.641Z,49.97
2023-05-05T06:12:07.067Z,50.94
2023-05-05T06:13:15.194Z,50.43
2023-05-05T06:14:06.890Z,50.69
2023-05-05T06:15:02.664Z,50.88
2023-05-05T06:16:00.512Z,51.09
2023-05-05T06:17:15.281Z,63.20
2023-05-05T06:17:59.457Z,50.56
2023-05-05T06:18:59.439Z,62.90
2023-05-05T06:19:59.386Z,82.06
2023-05-05T06:21:02.596Z,112.02
2023-05-05T06:22:02.700Z,50.96
2023-05-05T06:23:14.949Z,51.12
2023-05-05T06:23:59.697Z,50.98
2023-05-05T06:24:59.312Z,63.88
2023-05-05T06:25:59.318Z,83.27
2023-05-05T06:27:00.721Z,110.01
2023-05-05T06:27:59.305Z,146.34
2023-05-05T06:29:00.298Z,148.90
2023-05-05T06:29:59.387Z,145.55
2023-05-05T06:30:59.365Z,141.63
2023-05-05T06:31:59.285Z,139.53
2023-05-05T06:32:59.358Z,135.05
2023-05-05T06:33:59.274Z,138.76
2023-05-05T06:34:59.293Z,137.40
2023-05-05T06:35:59.277Z,135.80
2023-05-05T06:36:59.262Z,130.17
2023-05-05T06:37:59.265Z,131.64
2023-05-05T06:39:00.721Z,127.63
2023-05-05T06:39:59.277Z,127.33
2023-05-05T06:40:59.247Z,127.99
2023-05-05T06:41:59.246Z,117.49
2023-05-05T06:42:59.230Z,117.26
2023-05-05T06:43:59.710Z,115.49
2023-05-05T06:44:59.168Z,120.18
2023-05-05T06:45:59.653Z,122.67
2023-05-05T06:47:31.129Z,112.44
2023-05-05T06:47:59.210Z,112.84
2023-05-05T06:48:59.201Z,116.11
2023-05-05T06:49:59.083Z,120.55
2023-05-05T06:50:59.248Z,124.78
2023-05-05T06:51:59.048Z,128.06
2023-05-05T06:52:59.042Z,140.65
2023-05-05T12:17:29.453Z,25.00
2023-05-05T12:18:30.372Z,25.00
2023-05-05T12:19:30.350Z,25.00
2023-05-05T12:20:30.333Z,25.00
2023-05-05T12:21:30.305Z,25.00
2023-05-05T12:22:30.282Z,25.18
2023-05-05T12:23:30.274Z,24.09
2023-05-05T12:24:30.263Z,24.70
2023-05-05T12:25:30.240Z,23.96
2023-05-05T12:26:30.224Z,25.00
2023-05-05T12:27:30.204Z,29.42
2023-05-05T12:28:30.184Z,25.42
2023-05-05T12:29:30.177Z,25.00
2023-05-05T12:30:30.187Z,24.27
2023-05-05T12:31:30.154Z,25.00
2023-05-05T12:32:30.131Z,30.10
2023-05-05T12:33:30.226Z,29.41
2023-05-05T12:34:30.092Z,25.47
2023-05-05T12:35:30.150Z,25.00
2023-05-05T12:36:30.578Z,28.74
2023-05-05T12:37:30.039Z,26.20
2023-05-05T12:38:30.051Z,31.83
2023-05-05T12:39:30.016Z,31.34
2023-05-05T12:40:30.051Z,26.95
2023-05-05T12:41:29.960Z,28.25
2023-05-05T12:42:29.955Z,25.26
2023-05-05T12:43:29.959Z,28.38
2023-05-05T12:44:29.955Z,35.15
2023-05-05T12:45:29.986Z,25.00
2023-05-05T12:46:30.077Z,25.00
2023-05-05T12:47:30.088Z,27.34
2023-05-05T12:48:30.114Z,28.07
2023-05-05T12:49:30.233Z,32.32
2023-05-05T12:50:30.616Z,42.58
2023-05-05T12:51:30.225Z,38.22
2023-05-05T12:52:30.254Z,38.17
2023-05-05T12:53:30.293Z,33.50
2023-05-05T12:54:30.330Z,48.17
2023-05-05T12:55:30.618Z,39.11
2023-05-05T12:56:30.431Z,28.11
2023-05-05T12:57:30.455Z,25.31
2023-05-05T12:58:30.494Z,30.20
2023-05-05T12:59:30.542Z,34.87
2023-05-05T13:00:30.601Z,37.77
2023-05-05T13:01:30.662Z,32.79
2023-05-05T13:02:30.726Z,29.71
2023-05-05T13:03:30.808Z,39.91
2023-05-05T13:04:30.751Z,40.57
2023-05-05T13:05:30.892Z,51.09
2023-05-05T13:06:30.826Z,59.64
2023-05-05T13:07:30.880Z,63.37
2023-05-05T13:08:30.915Z,57.88
2023-05-05T13:09:30.957Z,72.98
2023-05-05T13:10:31.005Z,75.07
2023-05-05T13:11:31.034Z,76.38
2023-05-05T13:12:31.123Z,82.34
2023-05-05T13:13:31.106Z,82.70
2023-05-05T13:14:31.163Z,61.29
2023-05-05T13:15:31.207Z,55.40
2023-05-05T13:16:31.224Z,71.65
2023-05-05T13:17:32.774Z,100.93
2023-05-05T13:18:31.217Z,141.08
2023-05-05T13:19:31.206Z,166.05
2023-05-05T13:20:31.187Z,185.68
2023-05-05T13:21:31.250Z,194.37
2023-05-05T13:22:31.127Z,204.71
2023-05-05T13:23:31.108Z,201.83
2023-05-05T13:24:42.268Z,197.08
2023-05-05T13:25:31.133Z,197.59
2023-05-05T13:26:31.073Z,199.46
2023-05-05T13:27:31.048Z,202.99
2023-05-05T13:28:31.025Z,210.74
2023-05-05T13:29:31.770Z,221.50
2023-05-05T13:30:31.003Z,229.08
2023-05-05T13:31:31.018Z,235.60
2023-05-05T13:32:30.996Z,234.31
2023-05-05T13:33:30.915Z,231.97
2023-05-05T13:34:30.904Z,233.89
2023-05-05T13:35:30.871Z,238.82
2023-05-05T13:36:30.853Z,238.27
2023-05-05T13:37:30.971Z,230.93
2023-05-05T13:38:30.812Z,214.85
2023-05-05T13:39:30.789Z,205.90
2023-05-05T13:40:30.824Z,199.35
2023-05-05T13:41:30.879Z,206.48
2023-05-05T13:42:30.947Z,216.23
2023-05-05T13:43:30.977Z,213.00
2023-05-05T13:44:31.026Z,205.29
2023-05-05T13:45:31.072Z,208.79
2023-05-05T13:46:31.134Z,221.77
2023-05-05T13:47:31.176Z,217.77
2023-05-05T13:48:31.631Z,210.19
2023-05-05T13:49:31.261Z,194.80
2023-05-05T13:50:31.301Z,191.37
2023-05-05T13:51:31.645Z,194.02
2023-05-05T13:52:31.840Z,193.43
2023-05-05T13:53:31.538Z,195.08
2023-05-05T13:54:31.351Z,191.51
2023-05-05T13:55:31.320Z,189.07
2023-05-05T13:56:31.299Z,175.55
2023-05-05T13:57:31.259Z,175.72
2023-05-05T13:58:31.233Z,173.79
2023-05-05T13:59:31.208Z,165.15
2023-05-05T14:00:31.912Z,158.62
2023-05-05T14:01:31.301Z,157.31
2023-05-05T14:02:31.179Z,152.39
2023-05-05T14:03:31.141Z,162.12
2023-05-05T14:04:31.180Z,157.32
2023-05-05T14:05:31.084Z,144.55
2023-05-05T14:06:31.072Z,141.29
2023-05-05T14:07:31.045Z,143.32
2023-05-05T14:08:31.035Z,130.12
2023-05-05T14:09:31.035Z,119.45
2023-05-05T14:10:30.977Z,103.68
2023-05-05T14:11:30.957Z,104.45
2023-05-05T14:12:30.964Z,106.18
2023-05-05T14:13:30.997Z,97.80
2023-05-05T14:14:31.081Z,100.68
2023-05-05T14:15:31.148Z,95.50
2023-05-05T14:16:31.170Z,104.64
2023-05-05T14:17:31.196Z,115.37
2023-05-05T14:18:31.211Z,125.25
2023-05-05T14:19:31.261Z,137.02
2023-05-05T14:20:31.308Z,132.35
2023-05-05T14:21:31.354Z,140.80
2023-05-05T14:22:31.414Z,132.92
2023-05-05T14:23:31.497Z,107.59
2023-05-05T14:24:31.501Z,98.57
2023-05-05T14:25:31.576Z,113.60
2023-05-05T14:26:31.610Z,115.90
2023-05-05T14:27:31.658Z,109.25
2023-05-05T14:28:32.225Z,100.23
2023-05-05T14:29:31.759Z,109.05
2023-05-05T14:30:31.811Z,99.35
2023-05-05T14:31:31.862Z,89.55
2023-05-05T14:32:31.918Z,81.66
2023-05-05T14:33:31.943Z,79.21
2023-05-05T14:34:32.045Z,73.30
2023-05-05T14:35:32.058Z,71.79
2023-05-05T14:36:32.108Z,70.65
2023-05-05T14:37:32.146Z,70.24
2023-05-05T14:38:32.203Z,68.22
2023-05-05T14:39:32.229Z,64.46
2023-05-05T14:40:32.271Z,60.59
2023-05-05T14:41:32.430Z,69.15
2023-05-05T14:42:32.359Z,74.17
2023-05-05T14:43:32.410Z,70.42
2023-05-05T14:44:32.474Z,65.82
2023-05-05T14:45:32.510Z,65.60
2023-05-05T14:46:32.743Z,60.49
2023-05-05T14:47:32.649Z,58.96
2023-05-05T14:48:32.686Z,59.57
2023-05-05T14:49:32.734Z,50.84
2023-05-05T14:50:32.801Z,56.73
2023-05-05T14:51:32.827Z,55.13
2023-05-05T14:52:32.876Z,48.54
2023-05-05T14:53:32.958Z,56.06
2023-05-05T14:54:32.987Z,63.47
2023-05-05T14:55:33.021Z,55.69
2023-05-05T14:56:33.052Z,60.59
2023-05-05T14:58:00.133Z,25.00
2023-05-05T14:59:01.017Z,25.00
2023-05-05T15:00:00.979Z,25.00
2023-05-05T15:01:00.974Z,25.00
2023-05-05T15:02:00.999Z,25.00
2023-05-05T15:03:00.971Z,28.61
2023-05-05T15:04:00.974Z,24.80
2023-05-05T15:05:00.892Z,25.72
2023-05-05T15:06:01.224Z,31.30
2023-05-05T15:07:00.856Z,32.75
2023-05-05T15:08:00.855Z,25.81
2023-05-05T15:09:00.816Z,26.62
2023-05-05T15:10:00.821Z,28.67
2023-05-05T15:11:00.791Z,33.42
2023-05-05T15:12:00.791Z,37.58
2023-05-05T15:13:00.833Z,47.35
2023-05-05T15:14:00.833Z,38.86
2023-05-05T15:15:00.732Z,41.47
2023-05-05T15:16:00.743Z,45.79
2023-05-05T15:17:00.689Z,59.16
2023-05-05T15:18:00.739Z,69.72
2023-05-05T15:19:00.662Z,71.23
2023-05-05T15:20:00.663Z,77.40
2023-05-05T15:21:00.620Z,94.09
2023-05-05T15:22:00.679Z,108.71
2023-05-05T15:23:00.682Z,108.86
2023-05-05T15:24:00.709Z,128.44
2023-05-05T15:25:00.751Z,135.31
2023-05-05T15:26:00.848Z,134.91
2023-05-05T15:27:00.849Z,125.36
2023-05-05T15:28:00.957Z,130.96
2023-05-05T15:29:00.934Z,119.33
2023-05-05T15:30:01.130Z,134.84
2023-05-05T15:31:01.009Z,142.35
2023-05-05T15:32:01.130Z,144.43
2023-05-05T15:33:01.028Z,151.15
2023-05-05T15:34:01.021Z,162.59
2023-05-05T15:35:01.029Z,163.14
2023-05-05T15:36:01.064Z,171.71
2023-05-05T15:37:01.137Z,171.28
2023-05-05T15:38:01.132Z,183.49
2023-05-05T15:39:01.174Z,185.10
2023-05-05T15:40:01.191Z,192.06
2023-05-05T15:41:01.230Z,192.15
2023-05-05T15:42:01.225Z,194.50
2023-05-05T15:43:01.270Z,201.94
2023-05-05T15:44:01.251Z,202.47
2023-05-05T15:45:01.266Z,211.00
2023-05-05T15:46:01.377Z,217.49
2023-05-05T15:47:01.269Z,215.81
2023-05-05T15:48:01.389Z,219.86
2023-05-05T15:49:01.324Z,222.88
2023-05-05T15:50:01.371Z,227.68
2023-05-05T15:51:01.381Z,222.06
2023-05-05T15:52:01.399Z,227.47
2023-05-05T15:53:01.457Z,235.54
2023-05-05T15:54:01.474Z,235.91
2023-05-05T15:55:01.598Z,236.80
2023-05-05T15:56:01.537Z,233.20
2023-05-05T15:57:01.563Z,239.11
2023-05-05T15:58:01.593Z,239.30
2023-05-05T15:59:01.645Z,241.18
2023-05-05T16:00:01.645Z,246.97
2023-05-05T16:01:01.662Z,242.38
2023-05-05T16:02:01.754Z,247.57
2023-05-05T16:03:01.766Z,246.91
2023-05-05T16:04:01.700Z,246.74
2023-05-05T16:05:01.704Z,250.00
2023-05-05T16:06:01.689Z,246.95
2023-05-05T16:07:01.685Z,248.38
2023-05-05T16:08:01.679Z,246.28
2023-05-05T16:09:01.684Z,247.19
2023-05-05T16:10:01.681Z,246.14
2023-05-05T16:11:01.683Z,247.10
2023-05-05T16:12:01.608Z,245.63
2023-05-05T16:13:01.604Z,247.85
2023-05-05T16:14:01.598Z,249.71
2023-05-05T16:15:01.597Z,246.09
2023-05-05T16:16:01.643Z,245.98
2023-05-05T16:17:01.618Z,249.04
2023-05-05T16:18:01.745Z,245.38
2023-05-05T16:19:01.549Z,250.00
2023-05-05T16:20:01.652Z,247.30
2023-05-05T16:21:01.496Z,246.67
2023-05-05T16:22:01.491Z,243.96
2023-05-05T16:23:01.468Z,249.01
2023-05-05T16:24:01.469Z,246.56
2023-05-05T16:25:01.452Z,246.51
2023-05-05T16:26:01.427Z,247.88
2023-05-05T16:27:01.414Z,244.91
2023-05-05T16:28:01.411Z,250.00
2023-05-05T16:29:01.425Z,249.58
2023-05-05T16:30:01.398Z,245.40
2023-05-05T16:31:01.389Z,248.49
2023-05-05T16:32:01.411Z,249.23
2023-05-05T16:33:01.420Z,249.58
2023-05-05T16:34:01.500Z,246.85
2023-05-05T16:35:01.358Z,249.84
2023-05-05T16:36:01.346Z,248.32
2023-05-05T16:37:01.352Z,249.34
2023-05-05T16:38:01.349Z,247.40
2023-05-05T16:39:01.309Z,247.62
2023-05-05T16:40:01.310Z,248.49
2023-05-05T16:41:01.292Z,250.00
2023-05-05T16:42:01.262Z,247.03
2023-05-05T16:43:01.244Z,246.85
2023-05-05T16:44:01.224Z,248.57
2023-05-05T16:45:01.206Z,245.16
2023-05-05T16:46:01.205Z,248.38
2023-05-05T16:47:01.179Z,249.86
2023-05-05T16:48:01.256Z,245.28
2023-05-05T16:49:01.168Z,250.00
2023-05-05T16:50:01.173Z,244.12
2023-05-05T16:51:01.162Z,250.00
2023-05-05T16:52:01.134Z,248.14
2023-05-05T16:53:01.132Z,250.00
2023-05-05T16:54:01.120Z,246.53
2023-05-05T16:55:01.124Z,247.08
2023-05-05T16:56:01.123Z,249.62
2023-05-05T16:57:01.101Z,247.83
2023-05-05T16:58:01.112Z,247.68
2023-05-05T16:59:01.088Z,247.29
2023-05-05T17:00:01.072Z,248.03
2023-05-05T17:01:01.063Z,249.04
2023-05-05T17:02:01.179Z,247.86
2023-05-05T17:03:01.061Z,248.44
2023-05-05T17:04:01.032Z,249.33
2023-05-05T17:05:01.060Z,247.91
2023-05-05T17:06:01.180Z,248.52
2023-05-05T17:07:00.995Z,250.00
2023-05-05T17:08:00.979Z,248.18
2023-05-05T17:09:00.956Z,247.93
2023-05-05T17:10:00.933Z,248.79
2023-05-05T17:11:00.944Z,247.63
2023-05-05T17:12:00.943Z,245.38
2023-05-05T17:13:00.949Z,247.76
2023-05-05T17:14:00.908Z,247.52
2023-05-05T17:15:00.889Z,248.79
2023-05-05T17:16:00.969Z,247.20
2023-05-05T17:17:00.861Z,250.00
2023-05-05T17:18:00.888Z,246.99
2023-05-05T17:19:00.842Z,247.84
2023-05-05T17:20:00.836Z,249.48
2023-05-05T17:21:00.910Z,250.00
2023-05-05T17:22:00.878Z,250.00
2023-05-05T17:23:00.809Z,246.89
2023-05-05T17:24:00.800Z,246.78
2023-05-05T17:25:00.777Z,248.29
2023-05-05T17:26:00.770Z,250.00
2023-05-05T17:27:00.772Z,245.98
2023-05-05T17:28:00.755Z,248.01
2023-05-05T17:29:00.779Z,248.45
2023-05-05T17:30:00.751Z,246.42
2023-05-05T17:31:00.739Z,248.82
2023-05-05T17:32:00.752Z,248.01
2023-05-05T17:33:00.744Z,250.00
2023-05-05T17:34:00.694Z,249.22
2023-05-05T17:35:00.681Z,246.98
2023-05-05T17:36:00.670Z,244.90
2023-05-05T17:37:00.780Z,249.20
2023-05-05T17:38:00.752Z,247.24
2023-05-05T17:39:00.642Z,247.28
2023-05-05T17:40:00.661Z,249.11
2023-05-05T17:41:01.644Z,249.80
2023-05-05T17:42:01.362Z,248.19
2023-05-05T17:43:01.333Z,248.68
2023-05-05T17:44:01.340Z,246.28
2023-05-05T17:45:00.670Z,250.00
2023-05-05T17:46:01.132Z,248.35
2023-05-05T17:47:00.780Z,247.05
2023-05-05T17:48:01.358Z,247.66
2023-05-05T17:49:00.678Z,248.79
2023-05-05T17:50:00.563Z,248.42
2023-05-05T17:51:00.545Z,247.93
2023-05-05T17:52:00.537Z,249.16
2023-05-05T17:53:00.561Z,246.37
2023-05-05T17:54:00.637Z,248.69
2023-05-05T17:55:00.507Z,247.66
2023-05-05T17:56:00.505Z,247.66
2023-05-05T17:57:00.495Z,249.78
2023-05-05T17:58:00.505Z,248.03
2023-05-05T17:59:00.497Z,248.38
2023-05-05T18:00:00.491Z,246.03
2023-05-05T18:01:00.548Z,248.37
2023-05-05T18:02:00.522Z,249.89
2023-05-05T18:03:00.525Z,249.31
2023-05-05T18:04:00.490Z,246.97
2023-05-05T18:05:00.500Z,250.00
2023-05-05T18:06:00.483Z,249.88
2023-05-05T18:07:00.483Z,248.62
2023-05-05T18:08:00.479Z,248.92
2023-05-05T18:09:00.474Z,247.44
2023-05-05T18:10:00.565Z,249.26